sensor_id;sensor_type;location;lat;lon;timestamp;P1;durP1;ratioP1;P2;durP2;ratioP2
179;SDS011;78;48.788;9.010;2023-09-08T00:01:03;28.10;;;11.00;;
179;SDS011;78;48.788;9.010;2023-09-08T00:03:29;25.03;;;10.57;;
179;SDS011;78;48.788;9.010;2023-09-08T00:05:55;26.03;;;10.70;;
179;SDS011;78;48.788;9.010;2023-09-08T00:08:22;29.47;;;10.67;;
179;SDS011;78;48.788;9.010;2023-09-08T00:10:49;29.00;;;10.10;;
179;SDS011;78;48.788;9.010;2023-09-08T00:13:15;26.30;;;10.90;;
179;SDS011;78;48.788;9.010;2023-09-08T00:15:42;26.57;;;11.10;;
179;SDS011;78;48.788;9.010;2023-09-08T00:18:08;27.57;;;10.67;;
179;SDS011;78;48.788;9.010;2023-09-08T00:20:35;27.27;;;11.30;;
179;SDS011;78;48.788;9.010;2023-09-08T00:23:01;25.60;;;10.77;;
179;SDS011;78;48.788;9.010;2023-09-08T00:25:28;28.90;;;11.23;;
179;SDS011;78;48.788;9.010;2023-09-08T00:27:54;25.87;;;10.43;;
179;SDS011;78;48.788;9.010;2023-09-08T00:30:20;27.53;;;11.10;;
179;SDS011;78;48.788;9.010;2023-09-08T00:32:46;29.00;;;10.43;;
179;SDS011;78;48.788;9.010;2023-09-08T00:35:12;27.17;;;10.80;;
179;SDS011;78;48.788;9.010;2023-09-08T00:37:39;28.53;;;11.23;;
179;SDS011;78;48.788;9.010;2023-09-08T00:40:05;28.00;;;11.17;;
179;SDS011;78;48.788;9.010;2023-09-08T00:42:33;28.27;;;10.60;;
179;SDS011;78;48.788;9.010;2023-09-08T00:45:00;24.90;;;10.40;;
179;SDS011;78;48.788;9.010;2023-09-08T00:47:26;28.43;;;10.20;;
179;SDS011;78;48.788;9.010;2023-09-08T00:49:52;28.23;;;10.27;;
179;SDS011;78;48.788;9.010;2023-09-08T00:52:18;26.73;;;10.13;;
179;SDS011;78;48.788;9.010;2023-09-08T00:54:45;29.93;;;11.70;;
179;SDS011;78;48.788;9.010;2023-09-08T00:57:11;27.33;;;11.20;;
179;SDS011;78;48.788;9.010;2023-09-08T00:59:38;30.37;;;10.90;;
179;SDS011;78;48.788;9.010;2023-09-08T01:02:04;24.00;;;10.30;;
179;SDS011;78;48.788;9.010;2023-09-08T01:04:31;26.20;;;10.60;;
179;SDS011;78;48.788;9.010;2023-09-08T01:06:59;26.30;;;10.87;;
179;SDS011;78;48.788;9.010;2023-09-08T01:09:25;28.10;;;10.60;;
179;SDS011;78;48.788;9.010;2023-09-08T01:11:51;27.07;;;10.87;;
179;SDS011;78;48.788;9.010;2023-09-08T01:14:20;26.50;;;10.60;;
179;SDS011;78;48.788;9.010;2023-09-08T01:16:46;26.77;;;10.60;;
179;SDS011;78;48.788;9.010;2023-09-08T01:19:14;30.13;;;10.83;;
179;SDS011;78;48.788;9.010;2023-09-08T01:26:44;26.70;;;10.77;;
179;SDS011;78;48.788;9.010;2023-09-08T01:29:10;27.50;;;11.73;;
179;SDS011;78;48.788;9.010;2023-09-08T01:31:38;26.77;;;11.10;;
179;SDS011;78;48.788;9.010;2023-09-08T01:34:05;27.90;;;11.73;;
179;SDS011;78;48.788;9.010;2023-09-08T01:36:35;25.57;;;10.50;;
179;SDS011;78;48.788;9.010;2023-09-08T01:39:01;25.90;;;10.40;;
179;SDS011;78;48.788;9.010;2023-09-08T01:41:28;30.40;;;10.40;;
179;SDS011;78;48.788;9.010;2023-09-08T01:43:55;24.00;;;9.90;;
179;SDS011;78;48.788;9.010;2023-09-08T01:46:23;29.97;;;10.23;;
179;SDS011;78;48.788;9.010;2023-09-08T01:48:49;31.20;;;11.20;;
179;SDS011;78;48.788;9.010;2023-09-08T01:51:15;25.67;;;10.50;;
179;SDS011;78;48.788;9.010;2023-09-08T01:53:41;28.77;;;11.10;;
179;SDS011;78;48.788;9.010;2023-09-08T01:56:08;29.83;;;10.67;;
179;SDS011;78;48.788;9.010;2023-09-08T01:58:34;26.50;;;10.83;;
179;SDS011;78;48.788;9.010;2023-09-08T02:01:01;25.70;;;10.07;;
179;SDS011;78;48.788;9.010;2023-09-08T02:03:31;25.80;;;10.57;;
179;SDS011;78;48.788;9.010;2023-09-08T02:05:57;29.33;;;10.70;;
179;SDS011;78;48.788;9.010;2023-09-08T02:08:23;26.97;;;10.40;;
179;SDS011;78;48.788;9.010;2023-09-08T02:10:50;27.93;;;10.97;;
179;SDS011;78;48.788;9.010;2023-09-08T02:13:16;26.53;;;10.10;;
179;SDS011;78;48.788;9.010;2023-09-08T02:15:43;28.57;;;11.33;;
179;SDS011;78;48.788;9.010;2023-09-08T02:18:09;26.73;;;9.97;;
179;SDS011;78;48.788;9.010;2023-09-08T02:20:37;24.97;;;10.40;;
179;SDS011;78;48.788;9.010;2023-09-08T02:23:06;25.40;;;10.90;;
179;SDS011;78;48.788;9.010;2023-09-08T02:25:32;31.07;;;10.93;;
179;SDS011;78;48.788;9.010;2023-09-08T02:27:59;32.43;;;10.70;;
179;SDS011;78;48.788;9.010;2023-09-08T02:30:25;26.53;;;11.00;;
179;SDS011;78;48.788;9.010;2023-09-08T02:32:51;26.40;;;10.77;;
179;SDS011;78;48.788;9.010;2023-09-08T02:35:17;25.93;;;9.90;;
179;SDS011;78;48.788;9.010;2023-09-08T02:37:44;27.03;;;10.63;;
179;SDS011;78;48.788;9.010;2023-09-08T02:40:10;27.47;;;10.20;;
179;SDS011;78;48.788;9.010;2023-09-08T02:42:37;29.50;;;10.97;;
179;SDS011;78;48.788;9.010;2023-09-08T02:45:03;26.50;;;10.33;;
179;SDS011;78;48.788;9.010;2023-09-08T02:47:29;28.33;;;10.23;;
179;SDS011;78;48.788;9.010;2023-09-08T02:49:56;27.70;;;10.67;;
179;SDS011;78;48.788;9.010;2023-09-08T02:52:22;28.73;;;11.00;;
179;SDS011;78;48.788;9.010;2023-09-08T02:54:49;26.40;;;10.80;;
179;SDS011;78;48.788;9.010;2023-09-08T02:57:15;28.70;;;10.93;;
179;SDS011;78;48.788;9.010;2023-09-08T02:59:42;25.17;;;10.03;;
179;SDS011;78;48.788;9.010;2023-09-08T03:02:09;27.40;;;9.80;;
179;SDS011;78;48.788;9.010;2023-09-08T03:04:35;29.03;;;10.73;;
179;SDS011;78;48.788;9.010;2023-09-08T03:07:01;28.27;;;10.40;;
179;SDS011;78;48.788;9.010;2023-09-08T03:09:28;27.77;;;10.33;;
179;SDS011;78;48.788;9.010;2023-09-08T03:11:54;27.30;;;10.63;;
179;SDS011;78;48.788;9.010;2023-09-08T03:14:21;25.30;;;9.90;;
179;SDS011;78;48.788;9.010;2023-09-08T03:16:47;26.70;;;10.07;;
179;SDS011;78;48.788;9.010;2023-09-08T03:19:13;28.57;;;10.60;;
179;SDS011;78;48.788;9.010;2023-09-08T03:21:39;25.63;;;9.93;;
179;SDS011;78;48.788;9.010;2023-09-08T03:24:05;29.00;;;10.80;;
179;SDS011;78;48.788;9.010;2023-09-08T03:26:31;25.90;;;10.60;;
179;SDS011;78;48.788;9.010;2023-09-08T03:28:58;28.23;;;10.47;;
179;SDS011;78;48.788;9.010;2023-09-08T03:31:24;26.00;;;10.30;;
179;SDS011;78;48.788;9.010;2023-09-08T03:33:52;26.40;;;10.63;;
179;SDS011;78;48.788;9.010;2023-09-08T03:36:18;26.97;;;10.30;;
179;SDS011;78;48.788;9.010;2023-09-08T03:38:45;27.80;;;10.40;;
179;SDS011;78;48.788;9.010;2023-09-08T03:41:11;27.10;;;11.00;;
179;SDS011;78;48.788;9.010;2023-09-08T03:43:37;25.33;;;10.50;;
179;SDS011;78;48.788;9.010;2023-09-08T03:46:03;26.27;;;10.80;;
179;SDS011;78;48.788;9.010;2023-09-08T03:48:29;24.40;;;10.00;;
179;SDS011;78;48.788;9.010;2023-09-08T03:50:55;26.00;;;10.37;;
179;SDS011;78;48.788;9.010;2023-09-08T03:53:21;27.77;;;11.00;;
179;SDS011;78;48.788;9.010;2023-09-08T03:55:48;29.67;;;9.87;;
179;SDS011;78;48.788;9.010;2023-09-08T03:58:14;26.33;;;11.03;;
179;SDS011;78;48.788;9.010;2023-09-08T04:00:41;27.57;;;10.03;;
179;SDS011;78;48.788;9.010;2023-09-08T04:03:07;32.03;;;10.83;;
179;SDS011;78;48.788;9.010;2023-09-08T04:05:33;26.23;;;10.30;;
179;SDS011;78;48.788;9.010;2023-09-08T04:08:00;26.43;;;10.80;;
179;SDS011;78;48.788;9.010;2023-09-08T04:10:26;27.93;;;11.00;;
179;SDS011;78;48.788;9.010;2023-09-08T04:12:53;27.37;;;10.90;;
179;SDS011;78;48.788;9.010;2023-09-08T04:15:19;27.50;;;10.60;;
179;SDS011;78;48.788;9.010;2023-09-08T04:17:45;26.50;;;10.83;;
179;SDS011;78;48.788;9.010;2023-09-08T04:20:12;26.63;;;10.20;;
179;SDS011;78;48.788;9.010;2023-09-08T04:22:40;26.60;;;10.63;;
179;SDS011;78;48.788;9.010;2023-09-08T04:25:06;26.70;;;10.40;;
179;SDS011;78;48.788;9.010;2023-09-08T04:27:32;26.10;;;10.27;;
179;SDS011;78;48.788;9.010;2023-09-08T04:30:00;29.07;;;11.00;;
179;SDS011;78;48.788;9.010;2023-09-08T04:32:26;29.80;;;11.60;;
179;SDS011;78;48.788;9.010;2023-09-08T04:34:53;26.50;;;11.10;;
179;SDS011;78;48.788;9.010;2023-09-08T04:37:19;26.97;;;10.73;;
179;SDS011;78;48.788;9.010;2023-09-08T04:39:45;29.90;;;10.77;;
179;SDS011;78;48.788;9.010;2023-09-08T04:42:11;27.40;;;10.80;;
179;SDS011;78;48.788;9.010;2023-09-08T04:44:38;28.87;;;11.03;;
179;SDS011;78;48.788;9.010;2023-09-08T04:47:04;26.23;;;10.37;;
179;SDS011;78;48.788;9.010;2023-09-08T04:49:31;27.20;;;10.77;;
179;SDS011;78;48.788;9.010;2023-09-08T04:51:57;25.97;;;10.57;;
179;SDS011;78;48.788;9.010;2023-09-08T04:54:24;26.50;;;11.00;;
179;SDS011;78;48.788;9.010;2023-09-08T04:56:52;28.60;;;10.70;;
179;SDS011;78;48.788;9.010;2023-09-08T04:59:19;31.80;;;11.60;;
179;SDS011;78;48.788;9.010;2023-09-08T05:01:45;26.20;;;10.47;;
179;SDS011;78;48.788;9.010;2023-09-08T05:04:12;28.73;;;11.30;;
179;SDS011;78;48.788;9.010;2023-09-08T05:06:38;27.10;;;10.97;;
179;SDS011;78;48.788;9.010;2023-09-08T05:09:04;29.57;;;11.43;;
179;SDS011;78;48.788;9.010;2023-09-08T05:11:32;27.53;;;11.20;;
179;SDS011;78;48.788;9.010;2023-09-08T05:13:58;30.43;;;10.90;;
179;SDS011;78;48.788;9.010;2023-09-08T05:16:24;29.57;;;11.30;;
179;SDS011;78;48.788;9.010;2023-09-08T05:19:11;30.00;;;11.33;;
179;SDS011;78;48.788;9.010;2023-09-08T05:21:40;27.60;;;10.63;;
179;SDS011;78;48.788;9.010;2023-09-08T05:24:08;28.23;;;11.33;;
179;SDS011;78;48.788;9.010;2023-09-08T05:26:35;28.77;;;10.53;;
179;SDS011;78;48.788;9.010;2023-09-08T05:29:02;30.00;;;11.50;;
179;SDS011;78;48.788;9.010;2023-09-08T05:31:28;29.37;;;11.30;;
179;SDS011;78;48.788;9.010;2023-09-08T05:33:54;31.37;;;11.20;;
179;SDS011;78;48.788;9.010;2023-09-08T05:36:20;30.93;;;11.10;;
179;SDS011;78;48.788;9.010;2023-09-08T05:38:46;26.20;;;11.00;;
179;SDS011;78;48.788;9.010;2023-09-08T05:41:12;27.00;;;11.33;;
179;SDS011;78;48.788;9.010;2023-09-08T05:43:38;31.80;;;11.90;;
179;SDS011;78;48.788;9.010;2023-09-08T05:46:04;30.70;;;11.60;;
179;SDS011;78;48.788;9.010;2023-09-08T05:48:30;28.77;;;12.07;;
179;SDS011;78;48.788;9.010;2023-09-08T05:50:57;42.33;;;12.53;;
179;SDS011;78;48.788;9.010;2023-09-08T05:53:23;32.27;;;13.30;;
179;SDS011;78;48.788;9.010;2023-09-08T05:55:49;34.00;;;13.07;;
179;SDS011;78;48.788;9.010;2023-09-08T05:58:16;34.33;;;13.20;;
179;SDS011;78;48.788;9.010;2023-09-08T06:00:42;33.33;;;13.87;;
179;SDS011;78;48.788;9.010;2023-09-08T06:03:08;32.50;;;13.87;;
179;SDS011;78;48.788;9.010;2023-09-08T06:05:34;31.07;;;12.93;;
179;SDS011;78;48.788;9.010;2023-09-08T06:08:00;29.17;;;13.03;;
179;SDS011;78;48.788;9.010;2023-09-08T06:10:25;32.33;;;14.67;;
179;SDS011;78;48.788;9.010;2023-09-08T06:12:52;39.23;;;14.10;;
179;SDS011;78;48.788;9.010;2023-09-08T06:15:18;31.03;;;14.00;;
179;SDS011;78;48.788;9.010;2023-09-08T06:17:44;30.77;;;13.50;;
179;SDS011;78;48.788;9.010;2023-09-08T06:20:11;27.60;;;11.93;;
179;SDS011;78;48.788;9.010;2023-09-08T06:22:37;36.90;;;12.90;;
179;SDS011;78;48.788;9.010;2023-09-08T06:25:03;32.77;;;12.47;;
179;SDS011;78;48.788;9.010;2023-09-08T06:27:29;29.20;;;11.93;;
179;SDS011;78;48.788;9.010;2023-09-08T06:29:55;32.97;;;11.80;;
179;SDS011;78;48.788;9.010;2023-09-08T06:32:22;33.20;;;12.00;;
179;SDS011;78;48.788;9.010;2023-09-08T06:34:48;29.17;;;12.23;;
179;SDS011;78;48.788;9.010;2023-09-08T06:37:14;32.10;;;13.27;;
179;SDS011;78;48.788;9.010;2023-09-08T06:39:40;30.13;;;12.07;;
179;SDS011;78;48.788;9.010;2023-09-08T06:42:06;30.07;;;12.07;;
179;SDS011;78;48.788;9.010;2023-09-08T06:44:31;29.43;;;11.77;;
179;SDS011;78;48.788;9.010;2023-09-08T06:46:58;31.47;;;13.17;;
179;SDS011;78;48.788;9.010;2023-09-08T06:49:24;34.57;;;13.20;;
179;SDS011;78;48.788;9.010;2023-09-08T06:51:50;32.63;;;13.03;;
179;SDS011;78;48.788;9.010;2023-09-08T06:54:16;33.53;;;13.60;;
179;SDS011;78;48.788;9.010;2023-09-08T06:56:42;32.50;;;12.47;;
179;SDS011;78;48.788;9.010;2023-09-08T06:59:09;29.83;;;11.67;;
179;SDS011;78;48.788;9.010;2023-09-08T07:01:35;29.50;;;12.63;;
179;SDS011;78;48.788;9.010;2023-09-08T07:04:01;34.63;;;13.20;;
179;SDS011;78;48.788;9.010;2023-09-08T07:06:27;31.80;;;12.90;;
179;SDS011;78;48.788;9.010;2023-09-08T07:08:53;29.57;;;12.50;;
179;SDS011;78;48.788;9.010;2023-09-08T07:11:19;29.77;;;12.90;;
179;SDS011;78;48.788;9.010;2023-09-08T07:13:45;30.77;;;12.70;;
179;SDS011;78;48.788;9.010;2023-09-08T07:16:11;30.40;;;13.10;;
179;SDS011;78;48.788;9.010;2023-09-08T07:18:37;38.27;;;12.73;;
179;SDS011;78;48.788;9.010;2023-09-08T07:21:04;27.37;;;11.80;;
179;SDS011;78;48.788;9.010;2023-09-08T07:23:30;32.07;;;12.93;;
179;SDS011;78;48.788;9.010;2023-09-08T07:25:57;31.83;;;12.63;;
179;SDS011;78;48.788;9.010;2023-09-08T07:28:23;29.30;;;12.97;;
179;SDS011;78;48.788;9.010;2023-09-08T07:30:49;34.33;;;13.63;;
179;SDS011;78;48.788;9.010;2023-09-08T07:33:16;34.57;;;12.10;;
179;SDS011;78;48.788;9.010;2023-09-08T07:35:41;32.60;;;11.90;;
179;SDS011;78;48.788;9.010;2023-09-08T07:38:08;27.83;;;11.70;;
179;SDS011;78;48.788;9.010;2023-09-08T07:40:34;29.10;;;11.67;;
179;SDS011;78;48.788;9.010;2023-09-08T07:43:01;26.53;;;11.00;;
179;SDS011;78;48.788;9.010;2023-09-08T07:45:27;28.03;;;11.63;;
179;SDS011;78;48.788;9.010;2023-09-08T07:47:54;29.43;;;11.60;;
179;SDS011;78;48.788;9.010;2023-09-08T07:50:24;29.47;;;11.30;;
179;SDS011;78;48.788;9.010;2023-09-08T07:52:51;45.13;;;12.10;;
179;SDS011;78;48.788;9.010;2023-09-08T07:55:18;33.23;;;11.60;;
179;SDS011;78;48.788;9.010;2023-09-08T07:57:45;26.70;;;11.37;;
179;SDS011;78;48.788;9.010;2023-09-08T08:00:11;35.80;;;12.23;;
179;SDS011;78;48.788;9.010;2023-09-08T08:02:48;28.33;;;12.37;;
179;SDS011;78;48.788;9.010;2023-09-08T08:05:15;25.83;;;11.30;;
179;SDS011;78;48.788;9.010;2023-09-08T08:07:42;25.67;;;11.27;;
179;SDS011;78;48.788;9.010;2023-09-08T08:10:09;28.30;;;10.57;;
179;SDS011;78;48.788;9.010;2023-09-08T08:12:36;27.27;;;11.63;;
179;SDS011;78;48.788;9.010;2023-09-08T08:15:02;24.70;;;10.70;;
179;SDS011;78;48.788;9.010;2023-09-08T08:17:29;26.00;;;11.10;;
179;SDS011;78;48.788;9.010;2023-09-08T08:19:56;26.60;;;11.20;;
179;SDS011;78;48.788;9.010;2023-09-08T08:22:24;28.27;;;10.70;;
179;SDS011;78;48.788;9.010;2023-09-08T08:24:50;28.50;;;10.40;;
179;SDS011;78;48.788;9.010;2023-09-08T08:27:16;24.43;;;10.10;;
179;SDS011;78;48.788;9.010;2023-09-08T08:29:42;24.30;;;10.00;;
179;SDS011;78;48.788;9.010;2023-09-08T08:32:08;28.80;;;10.40;;
179;SDS011;78;48.788;9.010;2023-09-08T08:34:34;24.83;;;10.27;;
179;SDS011;78;48.788;9.010;2023-09-08T08:37:00;24.93;;;10.50;;
179;SDS011;78;48.788;9.010;2023-09-08T08:39:27;25.93;;;10.50;;
179;SDS011;78;48.788;9.010;2023-09-08T08:42:06;24.50;;;9.77;;
179;SDS011;78;48.788;9.010;2023-09-08T08:44:32;23.37;;;9.90;;
179;SDS011;78;48.788;9.010;2023-09-08T08:46:59;26.77;;;10.10;;
179;SDS011;78;48.788;9.010;2023-09-08T08:49:26;23.30;;;9.93;;
179;SDS011;78;48.788;9.010;2023-09-08T08:51:52;27.60;;;10.37;;
179;SDS011;78;48.788;9.010;2023-09-08T08:54:19;25.30;;;9.93;;
179;SDS011;78;48.788;9.010;2023-09-08T08:56:45;26.27;;;10.37;;
179;SDS011;78;48.788;9.010;2023-09-08T08:59:11;30.17;;;10.63;;
179;SDS011;78;48.788;9.010;2023-09-08T09:01:38;27.13;;;10.43;;
179;SDS011;78;48.788;9.010;2023-09-08T09:04:07;24.97;;;10.40;;
179;SDS011;78;48.788;9.010;2023-09-08T09:06:34;26.13;;;9.73;;
179;SDS011;78;48.788;9.010;2023-09-08T09:09:00;28.70;;;10.40;;
179;SDS011;78;48.788;9.010;2023-09-08T09:11:29;24.50;;;10.03;;
179;SDS011;78;48.788;9.010;2023-09-08T09:13:56;21.97;;;9.20;;
179;SDS011;78;48.788;9.010;2023-09-08T09:16:22;24.57;;;9.83;;
179;SDS011;78;48.788;9.010;2023-09-08T09:18:57;24.77;;;10.10;;
179;SDS011;78;48.788;9.010;2023-09-08T09:21:24;25.60;;;9.83;;
179;SDS011;78;48.788;9.010;2023-09-08T09:23:50;24.13;;;9.90;;
179;SDS011;78;48.788;9.010;2023-09-08T09:26:23;26.13;;;10.40;;
179;SDS011;78;48.788;9.010;2023-09-08T09:28:49;23.87;;;9.93;;
179;SDS011;78;48.788;9.010;2023-09-08T09:31:17;22.90;;;9.43;;
179;SDS011;78;48.788;9.010;2023-09-08T09:33:44;22.47;;;9.20;;
179;SDS011;78;48.788;9.010;2023-09-08T09:36:10;24.30;;;10.50;;
179;SDS011;78;48.788;9.010;2023-09-08T09:38:45;23.40;;;10.00;;
179;SDS011;78;48.788;9.010;2023-09-08T09:41:12;23.50;;;9.63;;
179;SDS011;78;48.788;9.010;2023-09-08T09:43:38;25.90;;;9.60;;
179;SDS011;78;48.788;9.010;2023-09-08T09:46:07;24.17;;;9.60;;
179;SDS011;78;48.788;9.010;2023-09-08T09:48:36;22.80;;;10.07;;
179;SDS011;78;48.788;9.010;2023-09-08T09:51:20;24.30;;;9.47;;
179;SDS011;78;48.788;9.010;2023-09-08T09:53:46;22.27;;;9.60;;
179;SDS011;78;48.788;9.010;2023-09-08T09:56:13;24.50;;;9.90;;
179;SDS011;78;48.788;9.010;2023-09-08T09:58:40;22.60;;;9.17;;
179;SDS011;78;48.788;9.010;2023-09-08T10:01:07;22.50;;;9.20;;
179;SDS011;78;48.788;9.010;2023-09-08T10:03:36;21.97;;;9.20;;
179;SDS011;78;48.788;9.010;2023-09-08T10:06:02;23.47;;;9.40;;
179;SDS011;78;48.788;9.010;2023-09-08T10:08:29;27.17;;;9.67;;
179;SDS011;78;48.788;9.010;2023-09-08T10:10:58;23.93;;;9.20;;
179;SDS011;78;48.788;9.010;2023-09-08T10:13:27;22.63;;;9.13;;
179;SDS011;78;48.788;9.010;2023-09-08T10:15:57;23.63;;;9.17;;
179;SDS011;78;48.788;9.010;2023-09-08T10:18:24;24.03;;;9.70;;
179;SDS011;78;48.788;9.010;2023-09-08T10:20:51;23.90;;;9.73;;
179;SDS011;78;48.788;9.010;2023-09-08T10:25:48;22.50;;;9.30;;
179;SDS011;78;48.788;9.010;2023-09-08T10:28:19;24.13;;;9.60;;
179;SDS011;78;48.788;9.010;2023-09-08T10:30:45;23.33;;;9.70;;
179;SDS011;78;48.788;9.010;2023-09-08T10:33:12;29.83;;;9.60;;
179;SDS011;78;48.788;9.010;2023-09-08T10:35:38;24.43;;;9.50;;
179;SDS011;78;48.788;9.010;2023-09-08T10:38:24;23.20;;;9.57;;
179;SDS011;78;48.788;9.010;2023-09-08T10:40:51;22.20;;;9.60;;
179;SDS011;78;48.788;9.010;2023-09-08T10:43:18;24.90;;;9.70;;
179;SDS011;78;48.788;9.010;2023-09-08T10:45:45;32.23;;;9.70;;
179;SDS011;78;48.788;9.010;2023-09-08T10:48:12;23.30;;;9.10;;
179;SDS011;78;48.788;9.010;2023-09-08T10:50:40;25.13;;;9.57;;
179;SDS011;78;48.788;9.010;2023-09-08T10:53:13;24.63;;;10.13;;
179;SDS011;78;48.788;9.010;2023-09-08T10:55:40;22.93;;;9.33;;
179;SDS011;78;48.788;9.010;2023-09-08T10:58:09;26.10;;;9.83;;
179;SDS011;78;48.788;9.010;2023-09-08T11:00:45;23.77;;;9.80;;
179;SDS011;78;48.788;9.010;2023-09-08T11:03:11;24.63;;;9.77;;
179;SDS011;78;48.788;9.010;2023-09-08T11:05:38;24.03;;;9.20;;
179;SDS011;78;48.788;9.010;2023-09-08T11:08:04;23.73;;;9.07;;
179;SDS011;78;48.788;9.010;2023-09-08T11:10:30;24.43;;;9.20;;
179;SDS011;78;48.788;9.010;2023-09-08T11:12:56;24.53;;;9.23;;
179;SDS011;78;48.788;9.010;2023-09-08T11:15:22;27.33;;;9.60;;
179;SDS011;78;48.788;9.010;2023-09-08T11:17:49;22.23;;;9.00;;
179;SDS011;78;48.788;9.010;2023-09-08T11:20:25;23.80;;;9.30;;
179;SDS011;78;48.788;9.010;2023-09-08T11:22:51;22.10;;;8.97;;
179;SDS011;78;48.788;9.010;2023-09-08T11:25:17;22.93;;;9.13;;
179;SDS011;78;48.788;9.010;2023-09-08T11:27:43;25.77;;;9.60;;
179;SDS011;78;48.788;9.010;2023-09-08T11:30:10;24.07;;;8.90;;
179;SDS011;78;48.788;9.010;2023-09-08T11:32:38;20.40;;;8.50;;
179;SDS011;78;48.788;9.010;2023-09-08T11:35:05;21.93;;;9.40;;
179;SDS011;78;48.788;9.010;2023-09-08T11:37:39;22.77;;;9.30;;
179;SDS011;78;48.788;9.010;2023-09-08T11:40:06;23.93;;;9.20;;
179;SDS011;78;48.788;9.010;2023-09-08T11:42:43;25.97;;;8.87;;
179;SDS011;78;48.788;9.010;2023-09-08T11:45:12;21.00;;;8.50;;
179;SDS011;78;48.788;9.010;2023-09-08T11:47:41;20.70;;;8.90;;
179;SDS011;78;48.788;9.010;2023-09-08T11:50:08;28.00;;;9.17;;
179;SDS011;78;48.788;9.010;2023-09-08T11:52:35;23.87;;;8.80;;
179;SDS011;78;48.788;9.010;2023-09-08T11:55:01;23.17;;;9.60;;
179;SDS011;78;48.788;9.010;2023-09-08T11:57:28;24.30;;;9.20;;
179;SDS011;78;48.788;9.010;2023-09-08T11:59:54;21.90;;;8.90;;
179;SDS011;78;48.788;9.010;2023-09-08T12:02:20;21.50;;;9.00;;
179;SDS011;78;48.788;9.010;2023-09-08T12:04:46;22.87;;;9.03;;
179;SDS011;78;48.788;9.010;2023-09-08T12:07:12;26.37;;;8.70;;
179;SDS011;78;48.788;9.010;2023-09-08T12:09:43;23.50;;;8.70;;
179;SDS011;78;48.788;9.010;2023-09-08T12:12:11;27.67;;;9.30;;
179;SDS011;78;48.788;9.010;2023-09-08T12:14:40;24.07;;;9.00;;
179;SDS011;78;48.788;9.010;2023-09-08T12:17:09;20.87;;;8.37;;
179;SDS011;78;48.788;9.010;2023-09-08T12:19:35;20.53;;;8.10;;
179;SDS011;78;48.788;9.010;2023-09-08T12:22:02;23.53;;;8.53;;
179;SDS011;78;48.788;9.010;2023-09-08T12:27:14;21.00;;;8.47;;
179;SDS011;78;48.788;9.010;2023-09-08T12:29:41;22.83;;;9.10;;
179;SDS011;78;48.788;9.010;2023-09-08T12:32:07;24.63;;;9.50;;
179;SDS011;78;48.788;9.010;2023-09-08T12:34:34;20.70;;;8.80;;
179;SDS011;78;48.788;9.010;2023-09-08T12:37:00;25.87;;;9.63;;
179;SDS011;78;48.788;9.010;2023-09-08T12:39:26;24.23;;;8.30;;
179;SDS011;78;48.788;9.010;2023-09-08T12:41:53;27.00;;;9.30;;
179;SDS011;78;48.788;9.010;2023-09-08T12:44:19;23.47;;;9.10;;
179;SDS011;78;48.788;9.010;2023-09-08T12:46:46;21.80;;;8.80;;
179;SDS011;78;48.788;9.010;2023-09-08T12:49:12;25.90;;;9.37;;
179;SDS011;78;48.788;9.010;2023-09-08T12:51:39;22.40;;;8.40;;
179;SDS011;78;48.788;9.010;2023-09-08T12:54:05;27.83;;;9.40;;
179;SDS011;78;48.788;9.010;2023-09-08T12:56:31;27.40;;;8.63;;
179;SDS011;78;48.788;9.010;2023-09-08T12:58:57;24.13;;;8.60;;
179;SDS011;78;48.788;9.010;2023-09-08T13:01:24;21.53;;;8.47;;
179;SDS011;78;48.788;9.010;2023-09-08T13:03:50;23.60;;;8.50;;
179;SDS011;78;48.788;9.010;2023-09-08T13:06:16;21.03;;;8.10;;
179;SDS011;78;48.788;9.010;2023-09-08T13:08:42;22.00;;;8.37;;
179;SDS011;78;48.788;9.010;2023-09-08T13:11:08;21.27;;;8.03;;
179;SDS011;78;48.788;9.010;2023-09-08T13:13:35;19.57;;;8.30;;
179;SDS011;78;48.788;9.010;2023-09-08T13:16:01;21.20;;;7.93;;
179;SDS011;78;48.788;9.010;2023-09-08T13:18:28;20.53;;;7.77;;
179;SDS011;78;48.788;9.010;2023-09-08T13:21:00;20.60;;;7.77;;
179;SDS011;78;48.788;9.010;2023-09-08T13:23:27;21.40;;;7.70;;
179;SDS011;78;48.788;9.010;2023-09-08T13:25:54;26.83;;;8.30;;
179;SDS011;78;48.788;9.010;2023-09-08T13:28:20;23.33;;;7.63;;
179;SDS011;78;48.788;9.010;2023-09-08T13:30:46;23.07;;;7.90;;
179;SDS011;78;48.788;9.010;2023-09-08T13:33:12;20.77;;;7.83;;
179;SDS011;78;48.788;9.010;2023-09-08T13:35:38;19.07;;;7.60;;
179;SDS011;78;48.788;9.010;2023-09-08T13:38:04;19.73;;;7.43;;
179;SDS011;78;48.788;9.010;2023-09-08T13:40:30;23.10;;;8.17;;
179;SDS011;78;48.788;9.010;2023-09-08T13:42:56;22.63;;;8.03;;
179;SDS011;78;48.788;9.010;2023-09-08T13:45:22;22.00;;;7.90;;
179;SDS011;78;48.788;9.010;2023-09-08T13:47:48;20.30;;;7.50;;
179;SDS011;78;48.788;9.010;2023-09-08T13:50:14;20.13;;;8.03;;
179;SDS011;78;48.788;9.010;2023-09-08T13:52:40;20.00;;;7.60;;
179;SDS011;78;48.788;9.010;2023-09-08T13:55:06;21.20;;;7.97;;
179;SDS011;78;48.788;9.010;2023-09-08T13:57:32;20.57;;;7.70;;
179;SDS011;78;48.788;9.010;2023-09-08T13:59:58;20.47;;;7.87;;
179;SDS011;78;48.788;9.010;2023-09-08T14:02:24;19.50;;;7.80;;
179;SDS011;78;48.788;9.010;2023-09-08T14:04:50;22.40;;;8.00;;
179;SDS011;78;48.788;9.010;2023-09-08T14:07:16;23.00;;;8.00;;
179;SDS011;78;48.788;9.010;2023-09-08T14:09:42;23.43;;;7.63;;
179;SDS011;78;48.788;9.010;2023-09-08T14:12:08;19.63;;;7.30;;
179;SDS011;78;48.788;9.010;2023-09-08T14:14:34;21.83;;;7.20;;
179;SDS011;78;48.788;9.010;2023-09-08T14:17:00;19.30;;;7.37;;
179;SDS011;78;48.788;9.010;2023-09-08T14:19:26;23.67;;;7.77;;
179;SDS011;78;48.788;9.010;2023-09-08T14:21:52;31.37;;;7.73;;
179;SDS011;78;48.788;9.010;2023-09-08T14:24:18;20.10;;;7.43;;
179;SDS011;78;48.788;9.010;2023-09-08T14:26:44;20.10;;;7.40;;
179;SDS011;78;48.788;9.010;2023-09-08T14:29:11;19.97;;;6.87;;
179;SDS011;78;48.788;9.010;2023-09-08T14:31:37;19.30;;;7.03;;
179;SDS011;78;48.788;9.010;2023-09-08T14:34:03;19.57;;;6.73;;
179;SDS011;78;48.788;9.010;2023-09-08T14:36:29;25.70;;;6.97;;
179;SDS011;78;48.788;9.010;2023-09-08T14:38:55;23.30;;;6.83;;
179;SDS011;78;48.788;9.010;2023-09-08T14:41:22;19.40;;;6.63;;
179;SDS011;78;48.788;9.010;2023-09-08T14:43:47;22.10;;;6.70;;
179;SDS011;78;48.788;9.010;2023-09-08T14:46:13;17.33;;;6.20;;
179;SDS011;78;48.788;9.010;2023-09-08T14:48:39;18.57;;;6.03;;
179;SDS011;78;48.788;9.010;2023-09-08T14:51:06;17.40;;;5.83;;
179;SDS011;78;48.788;9.010;2023-09-08T14:53:32;20.20;;;5.80;;
179;SDS011;78;48.788;9.010;2023-09-08T14:55:58;17.00;;;5.77;;
179;SDS011;78;48.788;9.010;2023-09-08T14:58:24;21.23;;;5.83;;
179;SDS011;78;48.788;9.010;2023-09-08T15:00:56;17.60;;;5.40;;
179;SDS011;78;48.788;9.010;2023-09-08T15:03:22;18.47;;;5.60;;
179;SDS011;78;48.788;9.010;2023-09-08T15:05:48;16.30;;;5.33;;
179;SDS011;78;48.788;9.010;2023-09-08T15:08:14;16.40;;;5.40;;
179;SDS011;78;48.788;9.010;2023-09-08T15:10:40;18.52;;;5.50;;
179;SDS011;78;48.788;9.010;2023-09-08T15:13:06;16.42;;;5.15;;
179;SDS011;78;48.788;9.010;2023-09-08T15:15:32;17.55;;;5.65;;
179;SDS011;78;48.788;9.010;2023-09-08T15:17:58;15.48;;;5.00;;
179;SDS011;78;48.788;9.010;2023-09-08T15:20:24;16.27;;;5.55;;
179;SDS011;78;48.788;9.010;2023-09-08T15:22:50;15.50;;;5.10;;
179;SDS011;78;48.788;9.010;2023-09-08T15:25:16;18.13;;;5.60;;
179;SDS011;78;48.788;9.010;2023-09-08T15:27:42;17.27;;;5.30;;
179;SDS011;78;48.788;9.010;2023-09-08T15:30:08;18.17;;;5.67;;
179;SDS011;78;48.788;9.010;2023-09-08T15:32:36;16.90;;;6.03;;
179;SDS011;78;48.788;9.010;2023-09-08T15:35:03;19.63;;;6.57;;
179;SDS011;78;48.788;9.010;2023-09-08T15:37:30;18.17;;;6.57;;
179;SDS011;78;48.788;9.010;2023-09-08T15:39:56;17.83;;;6.30;;
179;SDS011;78;48.788;9.010;2023-09-08T15:42:22;18.43;;;6.30;;
179;SDS011;78;48.788;9.010;2023-09-08T15:44:49;19.00;;;6.40;;